createdAt,value
2023-03-16T00:00:36.412Z,47.40
2023-03-16T00:03:05.210Z,46.90
2023-03-16T00:05:33.700Z,46.90
2023-03-16T00:08:02.104Z,47.10
2023-03-16T00:10:31.011Z,47.10
2023-03-16T00:12:59.412Z,47.10
2023-03-16T00:15:27.749Z,47.20
2023-03-16T00:17:57.439Z,47.30
2023-03-16T00:20:26.246Z,47.30
2023-03-16T00:22:54.930Z,47.40
2023-03-16T00:25:24.661Z,47.50
2023-03-16T00:27:53.225Z,47.50
2023-03-16T00:30:23.202Z,47.50
2023-03-16T00:32:54.140Z,47.50
2023-03-16T00:35:23.864Z,47.60
2023-03-16T00:37:52.336Z,47.80
2023-03-16T00:40:20.974Z,47.90
2023-03-16T00:42:49.379Z,48.00
2023-03-16T00:45:17.834Z,48.30
2023-03-16T00:47:46.299Z,48.40
2023-03-16T00:50:15.679Z,48.40
2023-03-16T00:52:45.934Z,48.50
2023-03-16T00:55:14.411Z,48.50
2023-03-16T00:57:43.018Z,48.50
2023-03-16T01:00:15.641Z,48.50
2023-03-16T01:02:45.389Z,48.50
2023-03-16T01:05:15.229Z,48.70
2023-03-16T01:07:45.391Z,48.70
2023-03-16T01:10:17.522Z,48.70
2023-03-16T01:12:46.443Z,48.80
2023-03-16T01:15:14.808Z,48.90
2023-03-16T01:17:43.267Z,48.90
2023-03-16T01:20:15.593Z,49.00
2023-03-16T01:22:45.621Z,49.00
2023-03-16T01:25:14.733Z,49.00
2023-03-16T01:27:44.275Z,49.10
2023-03-16T01:30:13.649Z,49.00
2023-03-16T01:32:43.631Z,49.00
2023-03-16T01:35:15.213Z,49.10
2023-03-16T01:37:44.913Z,49.10
2023-03-16T01:40:19.332Z,49.20
2023-03-16T01:42:48.956Z,49.30
2023-03-16T01:45:56.214Z,49.50
2023-03-16T01:48:27.401Z,49.60
2023-03-16T01:50:58.296Z,49.90
2023-03-16T01:53:28.192Z,49.90
2023-03-16T01:55:56.902Z,49.90
2023-03-16T01:58:26.056Z,49.90
2023-03-16T02:00:54.741Z,49.90
2023-03-16T02:03:24.261Z,49.80
2023-03-16T02:06:03.603Z,49.70
2023-03-16T02:08:36.645Z,49.70
2023-03-16T02:11:06.717Z,49.90
2023-03-16T02:13:44.017Z,49.90
2023-03-16T02:16:19.617Z,50.00
2023-03-16T02:18:51.534Z,50.10
2023-03-16T02:21:28.209Z,50.10
2023-03-16T02:23:58.885Z,50.00
2023-03-16T02:26:33.871Z,49.90
2023-03-16T02:29:14.786Z,49.80
2023-03-16T02:31:45.810Z,49.90
2023-03-16T02:34:15.987Z,50.10
2023-03-16T02:36:47.713Z,50.40
2023-03-16T02:39:17.949Z,50.50
2023-03-16T02:41:48.466Z,50.80
2023-03-16T02:44:24.517Z,51.20
2023-03-16T02:47:01.331Z,51.20
2023-03-16T02:49:35.334Z,51.30
2023-03-16T02:52:04.384Z,51.50
2023-03-16T02:54:33.603Z,51.50
2023-03-16T02:57:02.005Z,51.60
2023-03-16T02:59:32.289Z,51.60
2023-03-16T03:02:02.037Z,51.80
2023-03-16T03:04:30.433Z,51.80
2023-03-16T03:07:04.730Z,52.00
2023-03-16T03:09:37.676Z,52.20
2023-03-16T03:12:06.373Z,52.20
2023-03-16T03:14:38.107Z,52.30
2023-03-16T03:17:09.242Z,52.30
2023-03-16T03:19:38.293Z,52.30
2023-03-16T03:22:07.423Z,52.40
2023-03-16T03:24:35.991Z,52.40
2023-03-16T03:27:06.128Z,52.50
2023-03-16T03:29:38.831Z,52.60
2023-03-16T03:32:09.160Z,52.70
2023-03-16T03:34:38.168Z,52.90
2023-03-16T03:37:07.333Z,52.90
2023-03-16T03:39:36.367Z,53.00
2023-03-16T03:42:04.863Z,53.00
2023-03-16T03:44:34.693Z,53.10
2023-03-16T03:47:03.637Z,53.20
2023-03-16T03:49:33.992Z,53.30
2023-03-16T03:52:05.053Z,53.20
2023-03-16T03:54:33.488Z,53.30
2023-03-16T03:57:07.361Z,53.30
2023-03-16T03:59:42.571Z,53.30
2023-03-16T04:02:12.135Z,53.20
2023-03-16T04:04:47.083Z,53.30
2023-03-16T04:07:16.435Z,53.40
2023-03-16T04:09:46.546Z,53.50
2023-03-16T04:12:27.754Z,53.50
2023-03-16T04:14:56.876Z,53.50
2023-03-16T04:17:27.778Z,53.60
2023-03-16T04:20:02.130Z,53.60
2023-03-16T04:22:31.234Z,53.60
2023-03-16T04:24:59.806Z,53.50
2023-03-16T04:27:36.488Z,54.20
2023-03-16T04:30:07.164Z,53.80
2023-03-16T04:32:36.607Z,53.90
2023-03-16T04:35:08.958Z,54.00
2023-03-16T04:37:49.421Z,54.10
2023-03-16T04:40:19.567Z,54.20
2023-03-16T04:42:54.065Z,54.40
2023-03-16T04:45:22.776Z,54.60
2023-03-16T04:47:55.234Z,54.70
2023-03-16T04:50:25.523Z,54.90
2023-03-16T04:52:56.361Z,55.10
2023-03-16T04:55:25.445Z,55.30
2023-03-16T04:57:54.442Z,55.30
2023-03-16T05:00:25.302Z,55.40
2023-03-16T05:03:23.562Z,55.40
2023-03-16T05:05:53.794Z,55.50
2023-03-16T05:08:26.009Z,55.50
2023-03-16T05:10:58.855Z,56.20
2023-03-16T05:13:31.431Z,55.70
2023-03-16T05:16:01.972Z,55.90
2023-03-16T05:18:34.497Z,56.00
2023-03-16T05:21:04.552Z,56.20
2023-03-16T05:23:44.550Z,56.40
2023-03-16T05:26:14.225Z,56.50
2023-03-16T05:28:43.607Z,56.60
2023-03-16T05:31:15.200Z,56.60
2023-03-16T05:33:49.393Z,56.80
2023-03-16T05:36:24.824Z,57.00
2023-03-16T05:38:58.394Z,57.80
2023-03-16T05:41:39.006Z,57.60
2023-03-16T05:44:30.920Z,58.30
2023-03-16T05:47:25.246Z,58.80
2023-03-16T05:49:58.045Z,59.10
2023-03-16T05:52:35.032Z,59.30
2023-03-16T05:55:11.917Z,59.20
2023-03-16T05:57:40.416Z,59.10
2023-03-16T06:00:15.315Z,58.70
2023-03-16T06:02:52.469Z,58.30
2023-03-16T06:05:24.549Z,57.70
2023-03-16T06:07:54.487Z,57.30
2023-03-16T06:10:24.017Z,56.70
2023-03-16T06:12:52.965Z,55.90
2023-03-16T06:15:25.163Z,55.00
2023-03-16T06:17:54.530Z,54.40
2023-03-16T06:20:23.139Z,53.60
2023-03-16T06:22:51.840Z,51.70
2023-03-16T06:25:21.857Z,51.10
2023-03-16T06:27:50.439Z,50.50
2023-03-16T06:30:19.615Z,49.70
2023-03-16T06:32:48.103Z,49.10
2023-03-16T06:35:16.871Z,48.50
2023-03-16T06:38:05.572Z,47.90
2023-03-16T06:41:01.762Z,47.10
2023-03-16T06:43:31.332Z,46.70
2023-03-16T06:46:00.164Z,45.20
2023-03-16T06:48:28.701Z,45.00
2023-03-16T06:50:57.322Z,44.30
2023-03-16T06:53:28.763Z,43.90
2023-03-16T06:55:58.948Z,43.10
2023-03-16T06:58:31.220Z,42.70
2023-03-16T07:01:03.708Z,41.90
2023-03-16T07:03:32.660Z,41.30
2023-03-16T07:06:09.155Z,40.70
2023-03-16T07:08:37.984Z,39.70
2023-03-16T07:11:07.035Z,39.40
2023-03-16T07:13:38.376Z,38.70
2023-03-16T07:16:08.722Z,37.90
2023-03-16T07:18:39.921Z,37.90
2023-03-16T07:21:11.411Z,37.70
2023-03-16T07:23:40.640Z,37.00
2023-03-16T07:26:12.266Z,36.30
2023-03-16T07:28:52.122Z,36.10
2023-03-16T07:31:21.206Z,35.70
2023-03-16T07:33:49.889Z,34.40
2023-03-16T07:36:27.873Z,33.40
2023-03-16T07:39:01.604Z,32.70
2023-03-16T07:41:32.564Z,33.10
2023-03-16T07:44:16.940Z,32.40
2023-03-16T07:46:49.606Z,31.90
2023-03-16T07:49:19.939Z,31.00
2023-03-16T07:51:49.534Z,30.60
2023-03-16T07:54:21.333Z,30.40
2023-03-16T07:56:50.272Z,29.70
2023-03-16T07:59:38.677Z,29.70
2023-03-16T08:02:08.598Z,29.70
2023-03-16T08:04:37.200Z,29.40
2023-03-16T08:07:05.724Z,29.30
2023-03-16T08:09:48.796Z,28.60
2023-03-16T08:12:23.108Z,28.40
2023-03-16T08:14:54.666Z,28.10
2023-03-16T08:17:29.991Z,26.50
2023-03-16T08:20:00.004Z,24.70
2023-03-16T08:22:28.796Z,25.00
2023-03-16T08:24:57.184Z,24.60
2023-03-16T08:27:26.168Z,24.20
2023-03-16T08:30:05.069Z,24.00
2023-03-16T08:32:35.631Z,24.10
2023-03-16T08:35:04.719Z,24.20
2023-03-16T08:37:33.410Z,24.20
2023-03-16T08:40:02.320Z,23.20
2023-03-16T08:42:31.450Z,23.40
2023-03-16T08:45:12.256Z,23.70
2023-03-16T08:47:43.002Z,23.80
2023-03-16T08:50:15.881Z,23.60
2023-03-16T08:52:44.313Z,23.20
2023-03-16T08:55:13.413Z,23.60
2023-03-16T08:57:41.849Z,23.10
2023-03-16T09:00:14.562Z,22.40
2023-03-16T09:02:44.109Z,22.30
2023-03-16T09:05:15.972Z,22.60
2023-03-16T09:07:44.440Z,22.50
2023-03-16T09:10:16.616Z,21.70
2023-03-16T09:12:45.654Z,20.90
2023-03-16T09:15:15.679Z,21.00
2023-03-16T09:17:45.921Z,21.10
2023-03-16T09:20:26.808Z,21.40
2023-03-16T09:22:58.904Z,20.20
2023-03-16T09:25:27.914Z,20.40
2023-03-16T09:27:56.525Z,20.80
2023-03-16T09:30:26.638Z,21.60
2023-03-16T09:32:56.184Z,21.90
2023-03-16T09:35:25.300Z,22.30
2023-03-16T09:38:05.634Z,22.20
2023-03-16T09:40:38.401Z,21.60
2023-03-16T09:43:29.539Z,21.60
2023-03-16T09:46:06.759Z,21.10
2023-03-16T09:48:38.188Z,20.90
2023-03-16T09:51:09.761Z,20.50
2023-03-16T09:53:40.235Z,20.10
2023-03-16T09:56:12.426Z,20.50
2023-03-16T09:58:40.849Z,20.70
2023-03-16T10:01:19.127Z,20.60
2023-03-16T10:04:06.949Z,21.30
2023-03-16T10:06:38.842Z,21.20
2023-03-16T10:09:21.609Z,20.70
2023-03-16T10:11:54.797Z,20.20
2023-03-16T10:14:30.052Z,20.30
2023-03-16T10:17:04.908Z,20.10
2023-03-16T10:19:40.647Z,19.90
2023-03-16T10:22:19.962Z,19.90
2023-03-16T10:25:02.694Z,19.90
2023-03-16T10:27:33.964Z,20.00
2023-03-16T10:30:07.354Z,19.90
2023-03-16T10:32:38.702Z,19.60
2023-03-16T10:35:29.080Z,19.40
2023-03-16T10:37:58.731Z,19.40
2023-03-16T10:40:28.445Z,19.00
2023-03-16T10:42:57.047Z,18.60
2023-03-16T10:45:31.590Z,17.90
2023-03-16T10:48:09.553Z,18.10
2023-03-16T10:50:38.147Z,18.40
2023-03-16T10:53:14.485Z,18.90
2023-03-16T10:55:46.118Z,19.10
2023-03-16T10:58:25.363Z,18.80
2023-03-16T11:00:55.183Z,18.90
2023-03-16T11:03:28.997Z,19.00
2023-03-16T11:06:02.731Z,18.80
2023-03-16T11:08:35.570Z,18.50
2023-03-16T11:11:12.196Z,18.40
2023-03-16T11:13:46.240Z,18.20
2023-03-16T11:16:26.952Z,18.20
2023-03-16T11:19:00.034Z,18.40
2023-03-16T11:21:41.372Z,18.50
2023-03-16T11:24:18.588Z,18.60
2023-03-16T11:26:57.544Z,18.10
2023-03-16T11:29:29.976Z,18.40
2023-03-16T11:32:02.647Z,18.50
2023-03-16T11:34:34.278Z,18.70
2023-03-16T11:37:14.292Z,17.70
2023-03-16T11:39:54.290Z,17.90
2023-03-16T11:42:32.029Z,18.00
2023-03-16T11:45:14.458Z,17.70
2023-03-16T11:48:04.549Z,17.80
2023-03-16T11:50:45.782Z,18.00
2023-03-16T11:53:27.364Z,17.40
2023-03-16T11:56:08.127Z,17.40
2023-03-16T11:58:54.211Z,17.30
2023-03-16T12:01:30.706Z,17.30
2023-03-16T12:04:12.998Z,17.50
2023-03-16T12:06:57.639Z,17.30
2023-03-16T12:10:02.398Z,17.30
2023-03-16T12:12:43.886Z,17.90
2023-03-16T12:15:27.912Z,18.00
2023-03-16T12:18:02.808Z,18.40
2023-03-16T12:20:35.936Z,18.50
2023-03-16T12:23:11.688Z,18.40
2023-03-16T12:25:45.537Z,18.00
2023-03-16T12:28:22.107Z,17.90
2023-03-16T12:31:09.481Z,18.20
2023-03-16T12:33:50.047Z,18.10
2023-03-16T12:36:40.322Z,17.80
2023-03-16T12:39:14.274Z,18.10
2023-03-16T12:41:52.993Z,18.40
2023-03-16T12:44:28.080Z,18.40
2023-03-16T12:47:01.782Z,18.30
2023-03-16T12:49:36.341Z,17.70
2023-03-16T12:52:09.036Z,17.40
2023-03-16T12:54:52.989Z,17.60
2023-03-16T12:57:25.926Z,17.10
2023-03-16T12:59:59.549Z,16.70
2023-03-16T13:02:32.259Z,16.60
2023-03-16T13:05:03.773Z,16.50
2023-03-16T13:07:33.487Z,16.90
2023-03-16T13:10:10.252Z,16.90
2023-03-16T13:12:41.972Z,16.80
2023-03-16T13:15:29.768Z,17.00
2023-03-16T13:18:23.349Z,16.60
2023-03-16T13:20:56.544Z,16.40
2023-03-16T13:23:28.949Z,16.00
2023-03-16T13:26:07.377Z,15.80
2023-03-16T13:28:38.872Z,15.90
2023-03-16T13:31:21.037Z,16.40
2023-03-16T13:33:51.422Z,16.40
2023-03-16T13:36:19.957Z,16.30
2023-03-16T13:38:58.603Z,16.00
2023-03-16T13:41:28.547Z,15.90
2023-03-16T13:43:56.906Z,16.00
2023-03-16T13:46:31.163Z,16.00
2023-03-16T13:49:00.883Z,16.00
2023-03-16T13:51:33.204Z,16.10
2023-03-16T13:54:09.077Z,16.20
2023-03-16T13:56:40.463Z,16.10
2023-03-16T13:59:10.700Z,16.00
2023-03-16T14:01:39.314Z,16.30
2023-03-16T14:04:14.066Z,16.20
2023-03-16T14:06:43.240Z,16.30
2023-03-16T14:09:18.425Z,15.90
2023-03-16T14:11:48.804Z,16.20
2023-03-16T14:14:18.954Z,16.50
2023-03-16T14:16:47.225Z,16.60
2023-03-16T14:19:20.435Z,16.60
2023-03-16T14:21:49.839Z,16.40
2023-03-16T14:24:31.023Z,16.40
2023-03-16T14:27:16.981Z,16.60
2023-03-16T14:29:46.207Z,16.40
2023-03-16T14:32:28.201Z,16.70
2023-03-16T14:35:14.741Z,16.60
2023-03-16T14:37:43.719Z,16.60
2023-03-16T14:40:25.608Z,16.20
2023-03-16T14:42:58.769Z,15.30
2023-03-16T14:45:32.322Z,14.80
2023-03-16T14:48:06.141Z,14.70
2023-03-16T14:50:35.402Z,14.60
2023-03-16T14:53:05.236Z,14.50
2023-03-16T14:55:33.721Z,14.80
2023-03-16T14:58:03.571Z,15.10
2023-03-16T15:00:37.114Z,15.30
2023-03-16T15:03:17.210Z,15.40
2023-03-16T15:05:50.214Z,15.50
2023-03-16T15:08:23.267Z,15.80
2023-03-16T15:10:52.175Z,15.80
2023-03-16T15:13:52.864Z,15.70
2023-03-16T15:16:23.275Z,15.60
2023-03-16T15:18:52.281Z,15.80
2023-03-16T15:21:24.299Z,16.10
2023-03-16T15:23:52.731Z,16.30
2023-03-16T15:26:26.359Z,16.60
2023-03-16T15:28:57.020Z,17.00
2023-03-16T15:31:26.104Z,17.20
2023-03-16T15:33:54.612Z,17.30
2023-03-16T15:36:25.103Z,17.80
2023-03-16T15:38:55.670Z,18.00
2023-03-16T15:41:30.180Z,18.40
2023-03-16T15:44:03.379Z,18.70
2023-03-16T15:46:32.477Z,19.20
2023-03-16T15:49:00.850Z,19.40
2023-03-16T15:51:31.290Z,19.50
2023-03-16T15:54:03.002Z,19.70
2023-03-16T15:56:44.049Z,20.10
2023-03-16T15:59:22.424Z,20.30
2023-03-16T16:01:52.439Z,20.70
2023-03-16T16:04:23.819Z,21.00
2023-03-16T16:06:55.546Z,21.20
2023-03-16T16:09:24.301Z,21.40
2023-03-16T16:11:52.775Z,21.50
2023-03-16T16:14:26.021Z,21.80
2023-03-16T16:16:55.276Z,21.90
2023-03-16T16:19:23.818Z,22.10
2023-03-16T16:21:52.850Z,22.30
2023-03-16T16:24:21.177Z,23.20
2023-03-16T16:26:55.514Z,23.20
2023-03-16T16:29:30.174Z,23.40
2023-03-16T16:31:59.234Z,23.70
2023-03-16T16:34:28.246Z,23.80
2023-03-16T16:36:57.736Z,24.00
2023-03-16T16:39:26.789Z,24.20
2023-03-16T16:41:57.161Z,24.40
2023-03-16T16:44:33.419Z,24.50
2023-03-16T16:47:03.870Z,24.50
2023-03-16T16:49:35.248Z,24.60
2023-03-16T16:52:03.976Z,24.80
2023-03-16T16:54:33.124Z,24.90
2023-03-16T16:57:03.192Z,25.20
2023-03-16T16:59:34.761Z,25.20
2023-03-16T17:02:14.183Z,25.30
2023-03-16T17:04:42.630Z,25.40
2023-03-16T17:07:13.622Z,25.60
2023-03-16T17:09:42.022Z,25.80
2023-03-16T17:12:18.516Z,25.90
2023-03-16T17:14:48.393Z,25.90
2023-03-16T17:17:18.490Z,26.20
2023-03-16T17:19:48.674Z,26.20
2023-03-16T17:22:24.550Z,26.30
2023-03-16T17:24:53.279Z,26.40
2023-03-16T17:27:26.149Z,27.00
2023-03-16T17:29:57.158Z,26.60
2023-03-16T17:32:26.687Z,26.80
2023-03-16T17:34:55.399Z,26.90
2023-03-16T17:37:24.250Z,27.00
2023-03-16T17:39:56.314Z,27.10
2023-03-16T17:42:26.701Z,27.20
2023-03-16T17:44:58.045Z,27.30
2023-03-16T17:47:28.744Z,27.50
2023-03-16T17:49:57.303Z,27.50
2023-03-16T17:52:27.757Z,27.70
2023-03-16T17:54:56.662Z,27.70
2023-03-16T17:57:28.958Z,27.80
2023-03-16T17:59:59.371Z,27.90
2023-03-16T18:02:50.147Z,27.90
2023-03-16T18:05:22.204Z,28.10
2023-03-16T18:07:51.150Z,28.10
2023-03-16T18:10:21.851Z,28.20
2023-03-16T18:12:55.766Z,28.30
2023-03-16T18:15:31.227Z,28.50
2023-03-16T18:18:00.902Z,28.60
2023-03-16T18:20:33.446Z,28.80
2023-03-16T18:23:04.932Z,29.20
2023-03-16T18:25:39.025Z,29.70
2023-03-16T18:28:09.903Z,29.40
2023-03-16T18:30:41.869Z,29.40
2023-03-16T18:33:23.655Z,29.60
2023-03-16T18:35:54.456Z,29.60
2023-03-16T18:38:30.648Z,29.60
2023-03-16T18:40:59.789Z,29.90
2023-03-16T18:43:29.027Z,30.20
2023-03-16T18:45:58.882Z,30.20
2023-03-16T18:48:31.089Z,30.30
2023-03-16T18:50:59.631Z,30.10
2023-03-16T18:53:29.743Z,30.30
2023-03-16T18:55:58.667Z,30.40
2023-03-16T18:58:27.920Z,30.50
2023-03-16T19:01:00.009Z,30.50
2023-03-16T19:03:31.058Z,30.40
2023-03-16T19:06:01.352Z,30.50
2023-03-16T19:08:30.419Z,30.50
2023-03-16T19:11:01.856Z,30.50
2023-03-16T19:13:30.252Z,30.70
2023-03-16T19:16:01.376Z,30.90
2023-03-16T19:18:30.441Z,30.70
2023-03-16T19:20:59.022Z,30.70
2023-03-16T19:23:31.772Z,30.90
2023-03-16T19:26:00.411Z,31.10
2023-03-16T19:28:34.078Z,31.00
2023-03-16T19:31:18.968Z,30.90
2023-03-16T19:33:48.014Z,31.10
2023-03-16T19:36:25.710Z,31.10
2023-03-16T19:38:54.799Z,31.20
2023-03-16T19:41:27.199Z,31.60
2023-03-16T19:43:57.862Z,31.90
2023-03-16T19:46:28.597Z,31.50
2023-03-16T19:49:00.164Z,31.50
2023-03-16T19:51:29.451Z,31.50
2023-03-16T19:53:59.550Z,31.50
2023-03-16T19:56:29.317Z,31.30
2023-03-16T19:58:57.725Z,31.40
2023-03-16T20:01:33.027Z,31.50
2023-03-16T20:04:04.472Z,31.80
2023-03-16T20:06:34.241Z,31.70
2023-03-16T20:09:02.769Z,31.50
2023-03-16T20:11:32.626Z,31.30
2023-03-16T20:14:02.259Z,31.70
2023-03-16T20:16:33.966Z,31.50
2023-03-16T20:19:05.371Z,32.00
2023-03-16T20:21:33.842Z,31.60
2023-03-16T20:24:02.421Z,31.30
2023-03-16T20:26:33.523Z,31.40
2023-03-16T20:29:02.686Z,31.50
2023-03-16T20:31:36.741Z,31.70
2023-03-16T20:34:05.823Z,31.60
2023-03-16T20:36:34.288Z,31.60
2023-03-16T20:39:03.237Z,31.90
2023-03-16T20:41:33.032Z,32.10
2023-03-16T20:44:03.252Z,31.80
2023-03-16T20:46:34.450Z,31.90
2023-03-16T20:49:03.622Z,31.90
2023-03-16T20:51:32.007Z,32.20
2023-03-16T20:54:00.805Z,32.20
2023-03-16T20:56:29.205Z,32.20
2023-03-16T20:58:59.064Z,32.30
2023-03-16T21:01:28.156Z,32.30
2023-03-16T21:04:00.175Z,32.30
2023-03-16T21:06:30.445Z,32.50
2023-03-16T21:09:03.377Z,32.60
2023-03-16T21:11:36.930Z,32.90
2023-03-16T21:14:07.184Z,32.70
2023-03-16T21:16:35.795Z,32.60
2023-03-16T21:19:12.548Z,32.60
2023-03-16T21:21:41.395Z,32.70
2023-03-16T21:24:10.155Z,33.20
2023-03-16T21:26:38.794Z,33.50
2023-03-16T21:29:12.156Z,33.60
2023-03-16T21:31:41.115Z,33.60
2023-03-16T21:34:23.828Z,33.70
2023-03-16T21:36:52.796Z,33.80
2023-03-16T21:39:25.518Z,34.00
2023-03-16T21:41:54.424Z,34.20
2023-03-16T21:44:22.866Z,34.30
2023-03-16T21:46:51.595Z,34.50
2023-03-16T21:49:21.766Z,34.40
2023-03-16T21:51:51.253Z,34.40
2023-03-16T21:54:20.359Z,34.60
2023-03-16T21:56:48.976Z,34.80
2023-03-16T21:59:17.471Z,35.60
2023-03-16T22:02:00.737Z,35.10
2023-03-16T22:04:31.744Z,35.10
2023-03-16T22:07:00.107Z,35.40
2023-03-16T22:09:30.509Z,35.60
2023-03-16T22:11:59.234Z,35.70
2023-03-16T22:14:28.251Z,36.00
2023-03-16T22:16:57.030Z,36.10
2023-03-16T22:19:27.111Z,36.20
2023-03-16T22:21:57.813Z,36.20
2023-03-16T22:24:29.012Z,37.00
2023-03-16T22:26:58.258Z,36.60
2023-03-16T22:29:29.082Z,36.60
2023-03-16T22:32:01.520Z,36.50
2023-03-16T22:34:33.916Z,36.50
2023-03-16T22:37:03.996Z,36.50
2023-03-16T22:39:37.792Z,36.70
2023-03-16T22:42:26.311Z,37.60
2023-03-16T22:44:55.069Z,37.80
2023-03-16T22:47:26.193Z,37.30
2023-03-16T22:49:54.905Z,37.40
2023-03-16T22:52:29.593Z,37.10
2023-03-16T22:54:59.014Z,37.50
2023-03-16T22:57:27.699Z,37.20
2023-03-16T22:59:56.384Z,37.30
2023-03-16T23:02:27.498Z,37.10
2023-03-16T23:04:56.387Z,37.40
2023-03-16T23:07:26.171Z,37.70
2023-03-16T23:09:54.606Z,37.40
2023-03-16T23:12:23.248Z,37.20
2023-03-16T23:14:51.793Z,37.40
2023-03-16T23:17:23.862Z,37.50
2023-03-16T23:19:52.648Z,37.80
2023-03-16T23:22:21.099Z,37.70
2023-03-16T23:24:50.747Z,38.30
2023-03-16T23:27:21.641Z,37.90
2023-03-16T23:29:50.283Z,37.90
2023-03-16T23:32:18.960Z,38.00
2023-03-16T23:34:47.287Z,37.60
2023-03-16T23:37:15.881Z,38.10
2023-03-16T23:39:44.146Z,39.00
2023-03-16T23:42:13.820Z,39.00
2023-03-16T23:44:42.287Z,38.40
2023-03-16T23:47:12.040Z,38.20
2023-03-16T23:49:42.237Z,38.50
2023-03-16T23:52:14.585Z,38.70
2023-03-16T23:54:43.441Z,38.50
2023-03-16T23:57:13.194Z,38.80
2023-03-16T23:59:42.589Z,38.40
